sensor_id;sensor_type;location;lat;lon;timestamp;P1;durP1;ratioP1;P2;durP2;ratioP2
79747;SDS011;69232;47.488;19.268;2024-03-23T00:55:53;17.05;;;9.40;;
79747;SDS011;69232;47.488;19.268;2024-03-23T00:58:18;16.08;;;8.73;;
79747;SDS011;69232;47.488;19.268;2024-03-23T01:00:43;17.05;;;8.13;;
79747;SDS011;69232;47.488;19.268;2024-03-23T01:03:09;24.08;;;8.13;;
79747;SDS011;69232;47.488;19.268;2024-03-23T01:05:34;16.33;;;9.60;;
79747;SDS011;69232;47.488;19.268;2024-03-23T01:07:59;20.40;;;8.93;;
79747;SDS011;69232;47.488;19.268;2024-03-23T01:10:25;21.58;;;9.30;;
79747;SDS011;69232;47.488;19.268;2024-03-23T01:12:50;21.02;;;8.43;;
79747;SDS011;69232;47.488;19.268;2024-03-23T01:15:15;18.98;;;10.05;;
79747;SDS011;69232;47.488;19.268;2024-03-23T01:17:41;24.45;;;10.52;;
79747;SDS011;69232;47.488;19.268;2024-03-23T01:20:06;21.42;;;10.90;;
79747;SDS011;69232;47.488;19.268;2024-03-23T01:22:32;15.98;;;8.90;;
79747;SDS011;69232;47.488;19.268;2024-03-23T01:24:58;18.92;;;8.68;;
79747;SDS011;69232;47.488;19.268;2024-03-23T01:27:23;20.27;;;8.20;;
79747;SDS011;69232;47.488;19.268;2024-03-23T01:29:48;18.98;;;8.82;;
79747;SDS011;69232;47.488;19.268;2024-03-23T01:32:14;17.27;;;9.43;;
79747;SDS011;69232;47.488;19.268;2024-03-23T01:34:39;18.80;;;8.77;;
79747;SDS011;69232;47.488;19.268;2024-03-23T01:37:05;20.38;;;9.57;;
79747;SDS011;69232;47.488;19.268;2024-03-23T01:39:30;22.77;;;9.13;;
79747;SDS011;69232;47.488;19.268;2024-03-23T01:41:55;17.02;;;8.70;;
79747;SDS011;69232;47.488;19.268;2024-03-23T01:44:21;13.57;;;8.00;;
79747;SDS011;69232;47.488;19.268;2024-03-23T01:46:46;20.48;;;9.48;;
79747;SDS011;69232;47.488;19.268;2024-03-23T01:49:12;21.33;;;10.32;;
79747;SDS011;69232;47.488;19.268;2024-03-23T01:51:37;18.42;;;8.82;;
79747;SDS011;69232;47.488;19.268;2024-03-23T01:54:03;20.02;;;9.68;;
79747;SDS011;69232;47.488;19.268;2024-03-23T01:56:32;22.42;;;9.30;;
79747;SDS011;69232;47.488;19.268;2024-03-23T02:01:25;17.17;;;8.95;;
79747;SDS011;69232;47.488;19.268;2024-03-23T02:03:51;16.00;;;9.93;;
79747;SDS011;69232;47.488;19.268;2024-03-23T02:06:16;21.35;;;10.13;;
79747;SDS011;69232;47.488;19.268;2024-03-23T02:08:41;18.77;;;9.70;;
79747;SDS011;69232;47.488;19.268;2024-03-23T02:11:09;23.70;;;9.13;;
79747;SDS011;69232;47.488;19.268;2024-03-23T02:13:34;13.68;;;8.40;;
79747;SDS011;69232;47.488;19.268;2024-03-23T02:16:00;24.75;;;10.80;;
79747;SDS011;69232;47.488;19.268;2024-03-23T02:18:25;18.15;;;9.70;;
79747;SDS011;69232;47.488;19.268;2024-03-23T02:20:50;19.35;;;8.40;;
79747;SDS011;69232;47.488;19.268;2024-03-23T02:23:16;22.33;;;10.75;;
79747;SDS011;69232;47.488;19.268;2024-03-23T02:25:42;18.40;;;11.05;;
79747;SDS011;69232;47.488;19.268;2024-03-23T02:28:08;15.07;;;9.20;;
79747;SDS011;69232;47.488;19.268;2024-03-23T02:30:34;13.98;;;8.40;;
79747;SDS011;69232;47.488;19.268;2024-03-23T02:32:59;20.23;;;9.20;;
79747;SDS011;69232;47.488;19.268;2024-03-23T02:35:24;21.52;;;9.90;;
79747;SDS011;69232;47.488;19.268;2024-03-23T02:37:50;20.63;;;9.35;;
79747;SDS011;69232;47.488;19.268;2024-03-23T02:40:16;19.23;;;9.23;;
79747;SDS011;69232;47.488;19.268;2024-03-23T02:42:41;17.58;;;8.40;;
79747;SDS011;69232;47.488;19.268;2024-03-23T02:45:07;17.95;;;8.77;;
79747;SDS011;69232;47.488;19.268;2024-03-23T02:47:32;18.98;;;9.30;;
79747;SDS011;69232;47.488;19.268;2024-03-23T02:49:58;19.67;;;8.93;;
79747;SDS011;69232;47.488;19.268;2024-03-23T02:52:23;20.98;;;8.90;;
79747;SDS011;69232;47.488;19.268;2024-03-23T02:54:49;18.83;;;9.75;;
79747;SDS011;69232;47.488;19.268;2024-03-23T02:57:14;18.38;;;8.75;;
79747;SDS011;69232;47.488;19.268;2024-03-23T02:59:40;13.77;;;7.75;;
79747;SDS011;69232;47.488;19.268;2024-03-23T03:02:05;19.40;;;9.20;;
79747;SDS011;69232;47.488;19.268;2024-03-23T03:04:31;17.10;;;7.93;;
79747;SDS011;69232;47.488;19.268;2024-03-23T03:06:57;21.65;;;10.18;;
79747;SDS011;69232;47.488;19.268;2024-03-23T03:09:22;19.45;;;9.10;;
79747;SDS011;69232;47.488;19.268;2024-03-23T03:11:48;18.60;;;9.25;;
79747;SDS011;69232;47.488;19.268;2024-03-23T03:14:13;19.05;;;8.88;;
79747;SDS011;69232;47.488;19.268;2024-03-23T03:16:38;19.70;;;9.68;;
79747;SDS011;69232;47.488;19.268;2024-03-23T03:19:04;21.40;;;9.10;;
79747;SDS011;69232;47.488;19.268;2024-03-23T03:21:29;24.08;;;9.40;;
79747;SDS011;69232;47.488;19.268;2024-03-23T03:23:54;18.10;;;9.57;;
79747;SDS011;69232;47.488;19.268;2024-03-23T03:26:21;22.75;;;9.82;;
79747;SDS011;69232;47.488;19.268;2024-03-23T03:28:47;16.77;;;8.70;;
79747;SDS011;69232;47.488;19.268;2024-03-23T03:31:17;22.17;;;9.20;;
79747;SDS011;69232;47.488;19.268;2024-03-23T03:33:43;18.55;;;9.30;;
79747;SDS011;69232;47.488;19.268;2024-03-23T03:36:08;21.25;;;9.30;;
79747;SDS011;69232;47.488;19.268;2024-03-23T03:38:34;18.85;;;9.65;;
79747;SDS011;69232;47.488;19.268;2024-03-23T03:41:00;21.45;;;9.63;;
79747;SDS011;69232;47.488;19.268;2024-03-23T03:43:26;22.10;;;7.93;;
79747;SDS011;69232;47.488;19.268;2024-03-23T03:45:52;11.88;;;7.65;;
79747;SDS011;69232;47.488;19.268;2024-03-23T03:48:18;20.95;;;9.90;;
79747;SDS011;69232;47.488;19.268;2024-03-23T03:50:43;19.77;;;9.05;;
79747;SDS011;69232;47.488;19.268;2024-03-23T03:53:08;19.35;;;9.00;;
79747;SDS011;69232;47.488;19.268;2024-03-23T03:55:34;17.15;;;9.25;;
79747;SDS011;69232;47.488;19.268;2024-03-23T03:57:59;15.98;;;7.57;;
79747;SDS011;69232;47.488;19.268;2024-03-23T04:00:24;25.42;;;11.60;;
79747;SDS011;69232;47.488;19.268;2024-03-23T04:02:50;18.20;;;8.15;;
79747;SDS011;69232;47.488;19.268;2024-03-23T04:05:15;17.52;;;8.27;;
79747;SDS011;69232;47.488;19.268;2024-03-23T04:07:42;20.08;;;10.27;;
79747;SDS011;69232;47.488;19.268;2024-03-23T04:10:07;19.15;;;11.38;;
79747;SDS011;69232;47.488;19.268;2024-03-23T04:12:33;18.83;;;9.15;;
79747;SDS011;69232;47.488;19.268;2024-03-23T04:14:59;21.25;;;10.52;;
79747;SDS011;69232;47.488;19.268;2024-03-23T04:17:24;18.88;;;9.98;;
79747;SDS011;69232;47.488;19.268;2024-03-23T04:19:50;22.13;;;8.88;;
79747;SDS011;69232;47.488;19.268;2024-03-23T04:22:17;16.15;;;7.93;;
79747;SDS011;69232;47.488;19.268;2024-03-23T04:24:42;25.48;;;9.55;;
79747;SDS011;69232;47.488;19.268;2024-03-23T04:27:08;21.95;;;9.07;;
79747;SDS011;69232;47.488;19.268;2024-03-23T04:29:33;22.23;;;10.10;;
79747;SDS011;69232;47.488;19.268;2024-03-23T04:31:59;18.17;;;8.82;;
79747;SDS011;69232;47.488;19.268;2024-03-23T04:34:24;16.55;;;8.45;;
79747;SDS011;69232;47.488;19.268;2024-03-23T04:36:49;16.45;;;7.97;;
79747;SDS011;69232;47.488;19.268;2024-03-23T04:39:15;16.52;;;8.27;;
79747;SDS011;69232;47.488;19.268;2024-03-23T04:41:40;19.98;;;8.30;;
79747;SDS011;69232;47.488;19.268;2024-03-23T04:44:06;17.17;;;8.60;;
79747;SDS011;69232;47.488;19.268;2024-03-23T04:46:31;16.08;;;8.35;;
79747;SDS011;69232;47.488;19.268;2024-03-23T04:48:56;18.63;;;9.95;;
79747;SDS011;69232;47.488;19.268;2024-03-23T04:51:25;21.58;;;9.85;;
79747;SDS011;69232;47.488;19.268;2024-03-23T04:53:51;18.02;;;8.02;;
79747;SDS011;69232;47.488;19.268;2024-03-23T04:56:16;16.95;;;9.20;;
79747;SDS011;69232;47.488;19.268;2024-03-23T04:58:42;20.15;;;9.57;;
79747;SDS011;69232;47.488;19.268;2024-03-23T05:01:08;17.67;;;8.48;;
79747;SDS011;69232;47.488;19.268;2024-03-23T05:03:33;16.83;;;9.43;;
79747;SDS011;69232;47.488;19.268;2024-03-23T05:05:59;19.02;;;8.40;;
79747;SDS011;69232;47.488;19.268;2024-03-23T05:08:24;21.88;;;10.43;;
79747;SDS011;69232;47.488;19.268;2024-03-23T05:10:49;21.85;;;9.73;;
79747;SDS011;69232;47.488;19.268;2024-03-23T05:13:15;23.35;;;10.40;;
79747;SDS011;69232;47.488;19.268;2024-03-23T05:15:40;18.92;;;9.00;;
79747;SDS011;69232;47.488;19.268;2024-03-23T05:18:06;17.00;;;8.05;;
79747;SDS011;69232;47.488;19.268;2024-03-23T05:20:31;17.80;;;8.90;;
79747;SDS011;69232;47.488;19.268;2024-03-23T05:22:57;16.75;;;8.93;;
79747;SDS011;69232;47.488;19.268;2024-03-23T05:25:22;17.85;;;9.07;;
79747;SDS011;69232;47.488;19.268;2024-03-23T05:27:48;21.17;;;10.32;;
79747;SDS011;69232;47.488;19.268;2024-03-23T05:30:13;19.73;;;10.10;;
79747;SDS011;69232;47.488;19.268;2024-03-23T05:32:39;137.80;;;48.15;;
79747;SDS011;69232;47.488;19.268;2024-03-23T05:35:06;116.95;;;39.33;;
79747;SDS011;69232;47.488;19.268;2024-03-23T05:37:32;73.50;;;27.90;;
79747;SDS011;69232;47.488;19.268;2024-03-23T05:39:59;62.33;;;21.60;;
79747;SDS011;69232;47.488;19.268;2024-03-23T05:42:24;47.33;;;19.92;;
79747;SDS011;69232;47.488;19.268;2024-03-23T05:44:49;65.22;;;24.77;;
79747;SDS011;69232;47.488;19.268;2024-03-23T05:47:15;37.22;;;15.13;;
79747;SDS011;69232;47.488;19.268;2024-03-23T05:49:41;34.75;;;16.63;;
79747;SDS011;69232;47.488;19.268;2024-03-23T05:52:08;34.42;;;15.00;;
79747;SDS011;69232;47.488;19.268;2024-03-23T05:54:33;40.78;;;17.20;;
79747;SDS011;69232;47.488;19.268;2024-03-23T05:56:59;45.90;;;19.15;;
79747;SDS011;69232;47.488;19.268;2024-03-23T05:59:24;43.13;;;17.58;;
79747;SDS011;69232;47.488;19.268;2024-03-23T06:01:49;38.88;;;17.17;;
79747;SDS011;69232;47.488;19.268;2024-03-23T06:04:15;45.75;;;18.02;;
79747;SDS011;69232;47.488;19.268;2024-03-23T06:06:40;38.92;;;17.35;;
79747;SDS011;69232;47.488;19.268;2024-03-23T06:09:06;36.08;;;15.48;;
79747;SDS011;69232;47.488;19.268;2024-03-23T06:11:31;29.25;;;15.80;;
79747;SDS011;69232;47.488;19.268;2024-03-23T06:13:56;28.98;;;12.90;;
79747;SDS011;69232;47.488;19.268;2024-03-23T06:16:21;27.38;;;12.15;;
79747;SDS011;69232;47.488;19.268;2024-03-23T06:18:49;27.42;;;11.77;;
79747;SDS011;69232;47.488;19.268;2024-03-23T06:21:18;24.40;;;11.65;;
79747;SDS011;69232;47.488;19.268;2024-03-23T06:23:44;25.75;;;10.57;;
79747;SDS011;69232;47.488;19.268;2024-03-23T06:26:16;28.85;;;13.18;;
79747;SDS011;69232;47.488;19.268;2024-03-23T06:28:44;33.15;;;12.70;;
79747;SDS011;69232;47.488;19.268;2024-03-23T06:31:10;33.05;;;14.63;;
79747;SDS011;69232;47.488;19.268;2024-03-23T06:33:36;28.10;;;13.55;;
79747;SDS011;69232;47.488;19.268;2024-03-23T06:36:01;31.42;;;13.85;;
79747;SDS011;69232;47.488;19.268;2024-03-23T06:38:28;26.27;;;11.73;;
79747;SDS011;69232;47.488;19.268;2024-03-23T06:40:53;23.08;;;10.95;;
79747;SDS011;69232;47.488;19.268;2024-03-23T06:43:18;32.55;;;13.38;;
79747;SDS011;69232;47.488;19.268;2024-03-23T06:45:44;22.98;;;10.82;;
79747;SDS011;69232;47.488;19.268;2024-03-23T06:48:09;24.52;;;12.48;;
79747;SDS011;69232;47.488;19.268;2024-03-23T06:50:34;27.88;;;12.25;;
79747;SDS011;69232;47.488;19.268;2024-03-23T06:53:00;29.30;;;12.70;;
79747;SDS011;69232;47.488;19.268;2024-03-23T06:55:27;24.95;;;10.98;;
79747;SDS011;69232;47.488;19.268;2024-03-23T06:57:53;23.27;;;10.73;;
79747;SDS011;69232;47.488;19.268;2024-03-23T07:00:18;23.90;;;9.73;;
79747;SDS011;69232;47.488;19.268;2024-03-23T07:02:44;24.02;;;10.60;;
79747;SDS011;69232;47.488;19.268;2024-03-23T07:05:10;19.35;;;9.02;;
79747;SDS011;69232;47.488;19.268;2024-03-23T07:07:35;24.08;;;10.88;;
79747;SDS011;69232;47.488;19.268;2024-03-23T07:10:01;21.20;;;9.98;;
79747;SDS011;69232;47.488;19.268;2024-03-23T07:12:27;25.58;;;11.60;;
79747;SDS011;69232;47.488;19.268;2024-03-23T07:14:53;21.02;;;10.43;;
79747;SDS011;69232;47.488;19.268;2024-03-23T07:17:18;20.42;;;10.18;;
79747;SDS011;69232;47.488;19.268;2024-03-23T07:19:44;21.15;;;10.02;;
79747;SDS011;69232;47.488;19.268;2024-03-23T07:22:09;18.73;;;9.95;;
79747;SDS011;69232;47.488;19.268;2024-03-23T07:24:35;21.60;;;9.48;;
79747;SDS011;69232;47.488;19.268;2024-03-23T07:27:00;16.33;;;8.70;;
79747;SDS011;69232;47.488;19.268;2024-03-23T07:29:27;19.20;;;10.02;;
79747;SDS011;69232;47.488;19.268;2024-03-23T07:31:52;19.80;;;9.45;;
79747;SDS011;69232;47.488;19.268;2024-03-23T07:34:18;21.33;;;10.77;;
79747;SDS011;69232;47.488;19.268;2024-03-23T07:36:43;22.52;;;10.77;;
79747;SDS011;69232;47.488;19.268;2024-03-23T07:39:08;20.40;;;9.75;;
79747;SDS011;69232;47.488;19.268;2024-03-23T07:41:34;18.08;;;9.38;;
79747;SDS011;69232;47.488;19.268;2024-03-23T07:44:00;18.60;;;8.93;;
79747;SDS011;69232;47.488;19.268;2024-03-23T07:46:25;19.77;;;9.20;;
79747;SDS011;69232;47.488;19.268;2024-03-23T07:48:51;20.63;;;9.70;;
79747;SDS011;69232;47.488;19.268;2024-03-23T07:51:18;17.30;;;9.50;;
79747;SDS011;69232;47.488;19.268;2024-03-23T07:53:45;16.38;;;8.73;;
79747;SDS011;69232;47.488;19.268;2024-03-23T07:56:14;19.33;;;9.40;;
79747;SDS011;69232;47.488;19.268;2024-03-23T07:58:44;16.80;;;9.18;;
79747;SDS011;69232;47.488;19.268;2024-03-23T08:01:12;17.38;;;9.40;;
79747;SDS011;69232;47.488;19.268;2024-03-23T08:03:43;18.58;;;10.57;;
79747;SDS011;69232;47.488;19.268;2024-03-23T08:08:49;17.50;;;8.93;;
79747;SDS011;69232;47.488;19.268;2024-03-23T08:11:16;17.38;;;8.80;;
79747;SDS011;69232;47.488;19.268;2024-03-23T08:13:42;17.25;;;8.50;;
79747;SDS011;69232;47.488;19.268;2024-03-23T08:16:07;14.73;;;7.50;;
79747;SDS011;69232;47.488;19.268;2024-03-23T08:18:33;15.82;;;7.95;;
79747;SDS011;69232;47.488;19.268;2024-03-23T08:21:00;14.68;;;8.23;;
79747;SDS011;69232;47.488;19.268;2024-03-23T08:23:29;14.43;;;7.28;;
79747;SDS011;69232;47.488;19.268;2024-03-23T08:25:59;12.68;;;7.50;;
79747;SDS011;69232;47.488;19.268;2024-03-23T08:28:25;13.07;;;7.30;;
79747;SDS011;69232;47.488;19.268;2024-03-23T08:30:55;13.20;;;7.57;;
79747;SDS011;69232;47.488;19.268;2024-03-23T08:33:20;11.00;;;6.80;;
79747;SDS011;69232;47.488;19.268;2024-03-23T08:35:56;16.42;;;7.53;;
79747;SDS011;69232;47.488;19.268;2024-03-23T08:38:22;13.23;;;8.00;;
79747;SDS011;69232;47.488;19.268;2024-03-23T08:40:56;14.35;;;8.45;;
79747;SDS011;69232;47.488;19.268;2024-03-23T08:43:28;14.27;;;7.80;;
79747;SDS011;69232;47.488;19.268;2024-03-23T08:46:07;11.07;;;6.55;;
79747;SDS011;69232;47.488;19.268;2024-03-23T08:48:43;15.65;;;7.55;;
79747;SDS011;69232;47.488;19.268;2024-03-23T08:51:10;14.82;;;7.10;;
79747;SDS011;69232;47.488;19.268;2024-03-23T08:53:36;11.52;;;7.00;;
79747;SDS011;69232;47.488;19.268;2024-03-23T08:56:02;11.27;;;6.72;;
79747;SDS011;69232;47.488;19.268;2024-03-23T08:58:29;13.95;;;7.03;;
79747;SDS011;69232;47.488;19.268;2024-03-23T09:00:56;11.00;;;6.15;;
79747;SDS011;69232;47.488;19.268;2024-03-23T09:03:25;12.38;;;6.80;;
79747;SDS011;69232;47.488;19.268;2024-03-23T09:05:51;16.33;;;7.05;;
79747;SDS011;69232;47.488;19.268;2024-03-23T09:08:17;14.57;;;7.68;;
79747;SDS011;69232;47.488;19.268;2024-03-23T09:10:42;13.82;;;6.80;;
79747;SDS011;69232;47.488;19.268;2024-03-23T09:13:08;10.77;;;6.32;;
79747;SDS011;69232;47.488;19.268;2024-03-23T09:15:34;13.98;;;6.63;;
79747;SDS011;69232;47.488;19.268;2024-03-23T09:18:01;12.68;;;6.85;;
79747;SDS011;69232;47.488;19.268;2024-03-23T09:20:27;13.13;;;7.20;;
79747;SDS011;69232;47.488;19.268;2024-03-23T09:22:52;9.98;;;6.03;;
79747;SDS011;69232;47.488;19.268;2024-03-23T09:25:18;12.20;;;7.20;;
79747;SDS011;69232;47.488;19.268;2024-03-23T09:27:45;9.80;;;6.40;;
79747;SDS011;69232;47.488;19.268;2024-03-23T09:30:11;10.93;;;6.57;;
79747;SDS011;69232;47.488;19.268;2024-03-23T09:32:37;16.45;;;6.00;;
79747;SDS011;69232;47.488;19.268;2024-03-23T09:35:03;11.52;;;6.57;;
79747;SDS011;69232;47.488;19.268;2024-03-23T09:37:28;8.30;;;5.10;;
79747;SDS011;69232;47.488;19.268;2024-03-23T09:39:53;10.70;;;5.95;;
79747;SDS011;69232;47.488;19.268;2024-03-23T09:42:19;10.95;;;6.30;;
79747;SDS011;69232;47.488;19.268;2024-03-23T09:44:44;10.75;;;5.90;;
79747;SDS011;69232;47.488;19.268;2024-03-23T09:47:10;13.18;;;6.05;;
79747;SDS011;69232;47.488;19.268;2024-03-23T09:49:35;12.68;;;6.00;;
79747;SDS011;69232;47.488;19.268;2024-03-23T09:52:03;8.65;;;5.40;;
79747;SDS011;69232;47.488;19.268;2024-03-23T09:54:29;8.23;;;4.65;;
79747;SDS011;69232;47.488;19.268;2024-03-23T09:56:54;9.40;;;5.72;;
79747;SDS011;69232;47.488;19.268;2024-03-23T09:59:20;10.57;;;5.68;;
79747;SDS011;69232;47.488;19.268;2024-03-23T10:01:45;9.45;;;5.00;;
79747;SDS011;69232;47.488;19.268;2024-03-23T10:04:11;7.95;;;4.75;;
79747;SDS011;69232;47.488;19.268;2024-03-23T10:06:38;8.07;;;4.20;;
79747;SDS011;69232;47.488;19.268;2024-03-23T10:09:03;8.13;;;4.93;;
79747;SDS011;69232;47.488;19.268;2024-03-23T10:11:42;8.65;;;4.93;;
79747;SDS011;69232;47.488;19.268;2024-03-23T10:14:09;7.85;;;4.10;;
79747;SDS011;69232;47.488;19.268;2024-03-23T10:16:34;5.68;;;3.75;;
79747;SDS011;69232;47.488;19.268;2024-03-23T10:19:00;10.32;;;4.65;;
79747;SDS011;69232;47.488;19.268;2024-03-23T10:21:25;7.35;;;4.45;;
79747;SDS011;69232;47.488;19.268;2024-03-23T10:23:50;6.25;;;4.28;;
79747;SDS011;69232;47.488;19.268;2024-03-23T10:26:20;9.38;;;4.32;;
79747;SDS011;69232;47.488;19.268;2024-03-23T10:29:02;5.72;;;4.03;;
79747;SDS011;69232;47.488;19.268;2024-03-23T10:31:33;5.72;;;2.95;;
79747;SDS011;69232;47.488;19.268;2024-03-23T10:34:00;10.07;;;3.97;;
79747;SDS011;69232;47.488;19.268;2024-03-23T10:36:26;9.35;;;4.18;;
79747;SDS011;69232;47.488;19.268;2024-03-23T10:38:51;6.63;;;3.38;;
79747;SDS011;69232;47.488;19.268;2024-03-23T10:41:18;4.90;;;2.63;;
79747;SDS011;69232;47.488;19.268;2024-03-23T10:43:47;4.90;;;2.65;;
79747;SDS011;69232;47.488;19.268;2024-03-23T10:46:14;5.15;;;3.10;;
79747;SDS011;69232;47.488;19.268;2024-03-23T10:48:39;7.18;;;3.63;;
79747;SDS011;69232;47.488;19.268;2024-03-23T10:51:08;8.98;;;3.50;;
79747;SDS011;69232;47.488;19.268;2024-03-23T10:53:34;4.60;;;2.78;;
79747;SDS011;69232;47.488;19.268;2024-03-23T10:55:59;4.68;;;2.88;;
79747;SDS011;69232;47.488;19.268;2024-03-23T10:58:32;3.97;;;2.58;;
79747;SDS011;69232;47.488;19.268;2024-03-23T11:01:02;4.55;;;2.38;;
79747;SDS011;69232;47.488;19.268;2024-03-23T11:03:35;4.28;;;2.30;;
79747;SDS011;69232;47.488;19.268;2024-03-23T11:06:01;6.63;;;3.20;;
79747;SDS011;69232;47.488;19.268;2024-03-23T11:08:38;3.35;;;2.25;;
79747;SDS011;69232;47.488;19.268;2024-03-23T11:13:42;4.45;;;3.00;;
79747;SDS011;69232;47.488;19.268;2024-03-23T11:16:17;7.63;;;2.42;;
79747;SDS011;69232;47.488;19.268;2024-03-23T11:21:59;4.45;;;2.40;;
79747;SDS011;69232;47.488;19.268;2024-03-23T11:24:24;4.57;;;2.60;;
79747;SDS011;69232;47.488;19.268;2024-03-23T11:26:50;4.05;;;2.08;;
79747;SDS011;69232;47.488;19.268;2024-03-23T11:29:16;4.85;;;2.65;;
79747;SDS011;69232;47.488;19.268;2024-03-23T11:31:49;3.78;;;2.80;;
79747;SDS011;69232;47.488;19.268;2024-03-23T11:34:16;3.13;;;2.50;;
79747;SDS011;69232;47.488;19.268;2024-03-23T11:36:42;6.43;;;2.70;;
79747;SDS011;69232;47.488;19.268;2024-03-23T11:39:11;5.13;;;2.67;;
79747;SDS011;69232;47.488;19.268;2024-03-23T11:41:55;4.38;;;3.00;;
79747;SDS011;69232;47.488;19.268;2024-03-23T11:44:22;4.00;;;3.13;;
79747;SDS011;69232;47.488;19.268;2024-03-23T11:46:48;5.10;;;2.38;;
79747;SDS011;69232;47.488;19.268;2024-03-23T11:49:32;2.33;;;1.88;;
79747;SDS011;69232;47.488;19.268;2024-03-23T11:51:58;4.55;;;2.40;;
79747;SDS011;69232;47.488;19.268;2024-03-23T11:54:24;4.47;;;2.40;;
79747;SDS011;69232;47.488;19.268;2024-03-23T11:59:42;4.68;;;2.53;;
79747;SDS011;69232;47.488;19.268;2024-03-23T12:02:12;5.80;;;2.80;;
79747;SDS011;69232;47.488;19.268;2024-03-23T12:04:41;5.57;;;2.50;;
79747;SDS011;69232;47.488;19.268;2024-03-23T12:07:19;5.43;;;2.30;;
79747;SDS011;69232;47.488;19.268;2024-03-23T12:09:46;5.30;;;2.40;;
79747;SDS011;69232;47.488;19.268;2024-03-23T12:12:16;3.30;;;2.22;;
79747;SDS011;69232;47.488;19.268;2024-03-23T12:14:42;3.75;;;1.83;;
79747;SDS011;69232;47.488;19.268;2024-03-23T12:17:14;6.53;;;1.83;;
79747;SDS011;69232;47.488;19.268;2024-03-23T12:19:40;4.15;;;2.28;;
79747;SDS011;69232;47.488;19.268;2024-03-23T12:22:06;2.80;;;1.95;;
79747;SDS011;69232;47.488;19.268;2024-03-23T12:24:35;2.83;;;1.67;;
79747;SDS011;69232;47.488;19.268;2024-03-23T12:27:03;3.97;;;1.92;;
79747;SDS011;69232;47.488;19.268;2024-03-23T12:29:30;3.78;;;1.77;;
79747;SDS011;69232;47.488;19.268;2024-03-23T12:31:58;1.60;;;1.50;;
79747;SDS011;69232;47.488;19.268;2024-03-23T12:34:24;2.92;;;1.85;;
79747;SDS011;69232;47.488;19.268;2024-03-23T12:36:50;2.40;;;1.98;;
79747;SDS011;69232;47.488;19.268;2024-03-23T12:39:15;4.88;;;2.15;;
79747;SDS011;69232;47.488;19.268;2024-03-23T12:41:40;3.30;;;1.58;;
79747;SDS011;69232;47.488;19.268;2024-03-23T12:44:06;3.80;;;2.03;;
79747;SDS011;69232;47.488;19.268;2024-03-23T12:46:33;2.63;;;1.88;;
79747;SDS011;69232;47.488;19.268;2024-03-23T12:48:59;3.00;;;1.70;;
79747;SDS011;69232;47.488;19.268;2024-03-23T12:51:24;2.40;;;1.60;;
79747;SDS011;69232;47.488;19.268;2024-03-23T12:53:50;4.10;;;1.80;;
79747;SDS011;69232;47.488;19.268;2024-03-23T12:56:15;2.47;;;2.17;;
79747;SDS011;69232;47.488;19.268;2024-03-23T12:58:41;3.30;;;1.85;;
79747;SDS011;69232;47.488;19.268;2024-03-23T13:01:06;1.67;;;1.58;;
79747;SDS011;69232;47.488;19.268;2024-03-23T13:03:31;3.17;;;1.67;;
79747;SDS011;69232;47.488;19.268;2024-03-23T13:05:57;3.53;;;1.85;;
79747;SDS011;69232;47.488;19.268;2024-03-23T13:08:22;4.28;;;2.17;;
79747;SDS011;69232;47.488;19.268;2024-03-23T13:10:51;3.05;;;1.98;;
79747;SDS011;69232;47.488;19.268;2024-03-23T13:13:17;3.55;;;2.72;;
79747;SDS011;69232;47.488;19.268;2024-03-23T13:15:42;3.42;;;2.72;;
79747;SDS011;69232;47.488;19.268;2024-03-23T13:18:07;3.58;;;2.17;;
79747;SDS011;69232;47.488;19.268;2024-03-23T13:20:35;4.75;;;2.50;;
79747;SDS011;69232;47.488;19.268;2024-03-23T13:23:00;5.45;;;3.30;;
79747;SDS011;69232;47.488;19.268;2024-03-23T13:25:26;8.20;;;2.78;;
79747;SDS011;69232;47.488;19.268;2024-03-23T13:27:51;3.45;;;2.40;;
79747;SDS011;69232;47.488;19.268;2024-03-23T13:30:17;5.35;;;2.80;;
79747;SDS011;69232;47.488;19.268;2024-03-23T13:32:42;4.65;;;2.80;;
79747;SDS011;69232;47.488;19.268;2024-03-23T13:35:07;3.25;;;2.13;;
79747;SDS011;69232;47.488;19.268;2024-03-23T13:37:33;7.63;;;2.28;;
79747;SDS011;69232;47.488;19.268;2024-03-23T13:39:58;4.32;;;2.85;;
79747;SDS011;69232;47.488;19.268;2024-03-23T13:42:24;3.78;;;2.70;;
79747;SDS011;69232;47.488;19.268;2024-03-23T13:44:51;3.83;;;2.60;;
79747;SDS011;69232;47.488;19.268;2024-03-23T13:47:16;3.55;;;2.60;;
79747;SDS011;69232;47.488;19.268;2024-03-23T13:49:41;5.35;;;2.35;;
79747;SDS011;69232;47.488;19.268;2024-03-23T13:52:07;4.20;;;2.47;;
79747;SDS011;69232;47.488;19.268;2024-03-23T13:54:32;4.72;;;2.60;;
79747;SDS011;69232;47.488;19.268;2024-03-23T13:56:58;5.32;;;2.45;;
79747;SDS011;69232;47.488;19.268;2024-03-23T13:59:23;4.25;;;2.95;;
79747;SDS011;69232;47.488;19.268;2024-03-23T14:01:49;5.72;;;2.50;;
79747;SDS011;69232;47.488;19.268;2024-03-23T14:04:15;4.43;;;2.72;;
79747;SDS011;69232;47.488;19.268;2024-03-23T14:06:47;5.82;;;2.90;;
79747;SDS011;69232;47.488;19.268;2024-03-23T14:09:13;2.92;;;2.60;;
79747;SDS011;69232;47.488;19.268;2024-03-23T14:11:39;9.13;;;3.03;;
79747;SDS011;69232;47.488;19.268;2024-03-23T14:14:06;5.68;;;2.85;;
79747;SDS011;69232;47.488;19.268;2024-03-23T14:16:32;4.40;;;2.67;;
79747;SDS011;69232;47.488;19.268;2024-03-23T14:18:57;4.53;;;2.53;;
79747;SDS011;69232;47.488;19.268;2024-03-23T14:21:23;4.32;;;2.55;;
79747;SDS011;69232;47.488;19.268;2024-03-23T14:23:48;7.43;;;3.20;;
79747;SDS011;69232;47.488;19.268;2024-03-23T14:26:14;5.38;;;2.95;;
79747;SDS011;69232;47.488;19.268;2024-03-23T14:28:39;3.03;;;2.40;;
79747;SDS011;69232;47.488;19.268;2024-03-23T14:31:05;6.38;;;2.22;;
79747;SDS011;69232;47.488;19.268;2024-03-23T14:33:35;4.05;;;2.60;;
79747;SDS011;69232;47.488;19.268;2024-03-23T14:36:02;5.57;;;2.60;;
79747;SDS011;69232;47.488;19.268;2024-03-23T14:38:28;6.05;;;2.47;;
79747;SDS011;69232;47.488;19.268;2024-03-23T14:40:57;5.28;;;2.88;;
79747;SDS011;69232;47.488;19.268;2024-03-23T14:43:23;5.35;;;2.10;;
79747;SDS011;69232;47.488;19.268;2024-03-23T14:46:05;3.67;;;2.63;;
79747;SDS011;69232;47.488;19.268;2024-03-23T14:48:41;4.95;;;2.22;;
79747;SDS011;69232;47.488;19.268;2024-03-23T14:51:08;2.97;;;2.13;;
79747;SDS011;69232;47.488;19.268;2024-03-23T14:53:34;2.70;;;2.03;;
79747;SDS011;69232;47.488;19.268;2024-03-23T14:56:06;4.75;;;1.85;;
79747;SDS011;69232;47.488;19.268;2024-03-23T14:58:32;14.63;;;2.50;;
79747;SDS011;69232;47.488;19.268;2024-03-23T15:01:00;3.97;;;1.92;;
79747;SDS011;69232;47.488;19.268;2024-03-23T15:03:35;3.92;;;2.03;;
79747;SDS011;69232;47.488;19.268;2024-03-23T15:06:01;3.67;;;2.13;;
79747;SDS011;69232;47.488;19.268;2024-03-23T15:08:27;5.00;;;2.53;;
79747;SDS011;69232;47.488;19.268;2024-03-23T15:10:58;3.88;;;2.70;;
79747;SDS011;69232;47.488;19.268;2024-03-23T15:13:24;5.70;;;2.75;;
79747;SDS011;69232;47.488;19.268;2024-03-23T15:15:49;6.15;;;3.47;;
79747;SDS011;69232;47.488;19.268;2024-03-23T15:18:16;7.40;;;3.63;;
79747;SDS011;69232;47.488;19.268;2024-03-23T15:21:00;4.65;;;2.67;;
79747;SDS011;69232;47.488;19.268;2024-03-23T15:23:31;8.60;;;4.30;;
79747;SDS011;69232;47.488;19.268;2024-03-23T15:25:57;5.97;;;2.97;;
79747;SDS011;69232;47.488;19.268;2024-03-23T15:28:23;5.22;;;2.65;;